sensor_id;sensor_type;location;lat;lon;timestamp;P1;durP1;ratioP1;P2;durP2;ratioP2
22628;SDS011;11481;53.694;9.910;2023-05-25T00:00:08;11.80;;;5.55;;
22628;SDS011;11481;53.694;9.910;2023-05-25T00:02:36;15.07;;;5.20;;
22628;SDS011;11481;53.694;9.910;2023-05-25T00:05:06;14.52;;;5.95;;
22628;SDS011;11481;53.694;9.910;2023-05-25T00:07:34;14.23;;;5.43;;
22628;SDS011;11481;53.694;9.910;2023-05-25T00:10:01;13.63;;;5.60;;
22628;SDS011;11481;53.694;9.910;2023-05-25T00:12:28;18.35;;;5.90;;
22628;SDS011;11481;53.694;9.910;2023-05-25T00:14:54;18.27;;;6.25;;
22628;SDS011;11481;53.694;9.910;2023-05-25T00:17:21;14.07;;;6.40;;
22628;SDS011;11481;53.694;9.910;2023-05-25T00:19:49;18.65;;;6.85;;
22628;SDS011;11481;53.694;9.910;2023-05-25T00:22:16;11.48;;;5.63;;
22628;SDS011;11481;53.694;9.910;2023-05-25T00:24:43;13.43;;;5.50;;
22628;SDS011;11481;53.694;9.910;2023-05-25T00:27:09;15.10;;;5.38;;
22628;SDS011;11481;53.694;9.910;2023-05-25T00:29:36;9.38;;;4.63;;
22628;SDS011;11481;53.694;9.910;2023-05-25T00:32:03;14.65;;;5.40;;
22628;SDS011;11481;53.694;9.910;2023-05-25T00:34:30;10.75;;;5.10;;
22628;SDS011;11481;53.694;9.910;2023-05-25T00:36:57;16.83;;;5.20;;
22628;SDS011;11481;53.694;9.910;2023-05-25T00:39:23;9.10;;;4.78;;
22628;SDS011;11481;53.694;9.910;2023-05-25T00:41:50;10.40;;;4.93;;
22628;SDS011;11481;53.694;9.910;2023-05-25T00:44:17;16.23;;;5.18;;
22628;SDS011;11481;53.694;9.910;2023-05-25T00:46:47;16.60;;;4.78;;
22628;SDS011;11481;53.694;9.910;2023-05-25T00:49:16;16.50;;;5.43;;
22628;SDS011;11481;53.694;9.910;2023-05-25T00:51:45;13.18;;;5.05;;
22628;SDS011;11481;53.694;9.910;2023-05-25T00:54:13;13.60;;;5.15;;
22628;SDS011;11481;53.694;9.910;2023-05-25T00:56:52;20.08;;;5.25;;
22628;SDS011;11481;53.694;9.910;2023-05-25T00:59:27;15.30;;;5.60;;
22628;SDS011;11481;53.694;9.910;2023-05-25T01:01:56;16.52;;;5.65;;
22628;SDS011;11481;53.694;9.910;2023-05-25T01:04:28;15.77;;;5.70;;
22628;SDS011;11481;53.694;9.910;2023-05-25T01:06:57;12.25;;;5.65;;
22628;SDS011;11481;53.694;9.910;2023-05-25T01:09:26;15.88;;;5.45;;
22628;SDS011;11481;53.694;9.910;2023-05-25T01:11:55;17.85;;;6.32;;
22628;SDS011;11481;53.694;9.910;2023-05-25T01:14:25;14.95;;;5.32;;
22628;SDS011;11481;53.694;9.910;2023-05-25T01:16:53;17.45;;;6.07;;
22628;SDS011;11481;53.694;9.910;2023-05-25T01:19:24;13.23;;;4.97;;
22628;SDS011;11481;53.694;9.910;2023-05-25T01:21:56;12.98;;;5.90;;
22628;SDS011;11481;53.694;9.910;2023-05-25T01:24:37;17.25;;;6.05;;
22628;SDS011;11481;53.694;9.910;2023-05-25T01:27:15;11.63;;;5.60;;
22628;SDS011;11481;53.694;9.910;2023-05-25T01:30:01;12.55;;;6.43;;
22628;SDS011;11481;53.694;9.910;2023-05-25T01:32:29;12.10;;;6.28;;
22628;SDS011;11481;53.694;9.910;2023-05-25T01:34:57;17.98;;;6.15;;
22628;SDS011;11481;53.694;9.910;2023-05-25T01:37:26;12.10;;;5.95;;
22628;SDS011;11481;53.694;9.910;2023-05-25T01:39:53;15.73;;;7.20;;
22628;SDS011;11481;53.694;9.910;2023-05-25T01:42:20;14.80;;;6.40;;
22628;SDS011;11481;53.694;9.910;2023-05-25T01:44:46;17.38;;;6.95;;
22628;SDS011;11481;53.694;9.910;2023-05-25T01:49:55;10.52;;;6.20;;
22628;SDS011;11481;53.694;9.910;2023-05-25T01:52:29;13.60;;;6.07;;
22628;SDS011;11481;53.694;9.910;2023-05-25T01:55:02;18.08;;;6.78;;
22628;SDS011;11481;53.694;9.910;2023-05-25T01:57:34;14.48;;;6.68;;
22628;SDS011;11481;53.694;9.910;2023-05-25T02:00:03;17.23;;;6.85;;
22628;SDS011;11481;53.694;9.910;2023-05-25T02:02:30;15.18;;;6.57;;
22628;SDS011;11481;53.694;9.910;2023-05-25T02:04:58;21.92;;;8.00;;
22628;SDS011;11481;53.694;9.910;2023-05-25T02:07:25;13.20;;;6.53;;
22628;SDS011;11481;53.694;9.910;2023-05-25T02:09:52;19.92;;;6.50;;
22628;SDS011;11481;53.694;9.910;2023-05-25T02:12:18;12.82;;;5.80;;
22628;SDS011;11481;53.694;9.910;2023-05-25T02:14:45;16.40;;;6.50;;
22628;SDS011;11481;53.694;9.910;2023-05-25T02:17:13;16.25;;;6.90;;
22628;SDS011;11481;53.694;9.910;2023-05-25T02:19:43;14.68;;;6.72;;
22628;SDS011;11481;53.694;9.910;2023-05-25T02:22:10;12.93;;;6.13;;
22628;SDS011;11481;53.694;9.910;2023-05-25T02:24:37;16.60;;;6.60;;
22628;SDS011;11481;53.694;9.910;2023-05-25T02:27:04;18.50;;;6.82;;
22628;SDS011;11481;53.694;9.910;2023-05-25T02:29:31;17.80;;;7.28;;
22628;SDS011;11481;53.694;9.910;2023-05-25T02:31:58;16.50;;;6.85;;
22628;SDS011;11481;53.694;9.910;2023-05-25T02:34:25;15.13;;;6.50;;
22628;SDS011;11481;53.694;9.910;2023-05-25T02:36:51;15.40;;;7.53;;
22628;SDS011;11481;53.694;9.910;2023-05-25T02:39:18;17.10;;;7.70;;
22628;SDS011;11481;53.694;9.910;2023-05-25T02:41:44;13.85;;;7.03;;
22628;SDS011;11481;53.694;9.910;2023-05-25T02:44:11;17.33;;;6.97;;
22628;SDS011;11481;53.694;9.910;2023-05-25T02:46:38;17.23;;;6.88;;
22628;SDS011;11481;53.694;9.910;2023-05-25T02:49:05;16.13;;;7.40;;
22628;SDS011;11481;53.694;9.910;2023-05-25T02:51:31;19.15;;;7.88;;
22628;SDS011;11481;53.694;9.910;2023-05-25T02:53:58;16.08;;;6.85;;
22628;SDS011;11481;53.694;9.910;2023-05-25T02:56:25;20.48;;;7.93;;
22628;SDS011;11481;53.694;9.910;2023-05-25T02:58:52;19.00;;;7.45;;
22628;SDS011;11481;53.694;9.910;2023-05-25T03:01:19;15.73;;;6.97;;
22628;SDS011;11481;53.694;9.910;2023-05-25T03:03:46;17.27;;;7.50;;
22628;SDS011;11481;53.694;9.910;2023-05-25T03:06:17;17.52;;;7.35;;
22628;SDS011;11481;53.694;9.910;2023-05-25T03:08:46;19.38;;;8.15;;
22628;SDS011;11481;53.694;9.910;2023-05-25T03:11:13;17.23;;;7.63;;
22628;SDS011;11481;53.694;9.910;2023-05-25T03:13:40;16.92;;;7.82;;
22628;SDS011;11481;53.694;9.910;2023-05-25T03:16:07;18.52;;;6.97;;
22628;SDS011;11481;53.694;9.910;2023-05-25T03:18:33;17.42;;;8.05;;
22628;SDS011;11481;53.694;9.910;2023-05-25T03:21:01;20.92;;;7.07;;
22628;SDS011;11481;53.694;9.910;2023-05-25T03:23:28;17.25;;;7.35;;
22628;SDS011;11481;53.694;9.910;2023-05-25T03:25:54;15.00;;;7.20;;
22628;SDS011;11481;53.694;9.910;2023-05-25T03:28:21;18.73;;;6.85;;
22628;SDS011;11481;53.694;9.910;2023-05-25T03:30:48;17.88;;;6.78;;
22628;SDS011;11481;53.694;9.910;2023-05-25T03:33:15;13.57;;;6.53;;
22628;SDS011;11481;53.694;9.910;2023-05-25T03:35:42;14.40;;;6.78;;
22628;SDS011;11481;53.694;9.910;2023-05-25T03:38:08;18.42;;;7.32;;
22628;SDS011;11481;53.694;9.910;2023-05-25T03:40:35;15.95;;;6.80;;
22628;SDS011;11481;53.694;9.910;2023-05-25T03:43:02;14.50;;;6.78;;
22628;SDS011;11481;53.694;9.910;2023-05-25T03:45:29;19.38;;;6.90;;
22628;SDS011;11481;53.694;9.910;2023-05-25T03:47:55;19.77;;;6.85;;
22628;SDS011;11481;53.694;9.910;2023-05-25T03:50:22;18.58;;;6.78;;
22628;SDS011;11481;53.694;9.910;2023-05-25T03:52:49;17.15;;;7.00;;
22628;SDS011;11481;53.694;9.910;2023-05-25T03:55:15;17.50;;;7.05;;
22628;SDS011;11481;53.694;9.910;2023-05-25T03:57:42;13.30;;;6.60;;
22628;SDS011;11481;53.694;9.910;2023-05-25T04:00:09;15.82;;;6.13;;
22628;SDS011;11481;53.694;9.910;2023-05-25T04:02:36;16.13;;;6.75;;
22628;SDS011;11481;53.694;9.910;2023-05-25T04:05:03;15.52;;;5.88;;
22628;SDS011;11481;53.694;9.910;2023-05-25T04:07:30;15.50;;;6.45;;
22628;SDS011;11481;53.694;9.910;2023-05-25T04:09:57;12.60;;;5.43;;
22628;SDS011;11481;53.694;9.910;2023-05-25T04:12:25;17.58;;;6.10;;
22628;SDS011;11481;53.694;9.910;2023-05-25T04:14:52;14.25;;;5.45;;
22628;SDS011;11481;53.694;9.910;2023-05-25T04:17:19;13.80;;;5.13;;
22628;SDS011;11481;53.694;9.910;2023-05-25T04:19:50;11.40;;;4.80;;
22628;SDS011;11481;53.694;9.910;2023-05-25T04:22:17;17.35;;;6.05;;
22628;SDS011;11481;53.694;9.910;2023-05-25T04:24:44;14.35;;;5.32;;
22628;SDS011;11481;53.694;9.910;2023-05-25T04:27:11;11.25;;;5.10;;
22628;SDS011;11481;53.694;9.910;2023-05-25T04:29:40;10.48;;;5.00;;
22628;SDS011;11481;53.694;9.910;2023-05-25T04:32:06;13.48;;;5.47;;
22628;SDS011;11481;53.694;9.910;2023-05-25T04:34:34;13.98;;;6.05;;
22628;SDS011;11481;53.694;9.910;2023-05-25T04:37:01;13.90;;;5.60;;
22628;SDS011;11481;53.694;9.910;2023-05-25T04:39:30;12.85;;;5.80;;
22628;SDS011;11481;53.694;9.910;2023-05-25T04:41:58;10.88;;;5.45;;
22628;SDS011;11481;53.694;9.910;2023-05-25T04:44:29;16.20;;;5.78;;
22628;SDS011;11481;53.694;9.910;2023-05-25T04:46:57;12.43;;;4.72;;
22628;SDS011;11481;53.694;9.910;2023-05-25T04:49:27;13.40;;;5.65;;
22628;SDS011;11481;53.694;9.910;2023-05-25T04:51:54;14.88;;;5.55;;
22628;SDS011;11481;53.694;9.910;2023-05-25T04:54:21;13.90;;;5.32;;
22628;SDS011;11481;53.694;9.910;2023-05-25T04:56:48;13.82;;;5.28;;
22628;SDS011;11481;53.694;9.910;2023-05-25T04:59:15;12.52;;;5.78;;
22628;SDS011;11481;53.694;9.910;2023-05-25T05:01:41;11.15;;;5.15;;
22628;SDS011;11481;53.694;9.910;2023-05-25T05:04:09;15.77;;;6.40;;
22628;SDS011;11481;53.694;9.910;2023-05-25T05:06:37;19.65;;;5.60;;
22628;SDS011;11481;53.694;9.910;2023-05-25T05:09:04;12.35;;;5.10;;
22628;SDS011;11481;53.694;9.910;2023-05-25T05:11:30;12.27;;;5.03;;
22628;SDS011;11481;53.694;9.910;2023-05-25T05:13:59;14.43;;;5.15;;
22628;SDS011;11481;53.694;9.910;2023-05-25T05:16:25;10.52;;;5.95;;
22628;SDS011;11481;53.694;9.910;2023-05-25T05:18:54;17.77;;;5.65;;
22628;SDS011;11481;53.694;9.910;2023-05-25T05:21:20;13.07;;;5.80;;
22628;SDS011;11481;53.694;9.910;2023-05-25T05:23:48;14.02;;;4.93;;
22628;SDS011;11481;53.694;9.910;2023-05-25T05:26:15;9.50;;;4.00;;
22628;SDS011;11481;53.694;9.910;2023-05-25T05:28:41;13.52;;;5.07;;
22628;SDS011;11481;53.694;9.910;2023-05-25T05:31:08;15.27;;;5.10;;
22628;SDS011;11481;53.694;9.910;2023-05-25T05:33:35;10.43;;;4.95;;
22628;SDS011;11481;53.694;9.910;2023-05-25T05:36:02;9.45;;;4.68;;
22628;SDS011;11481;53.694;9.910;2023-05-25T05:38:30;11.40;;;4.68;;
22628;SDS011;11481;53.694;9.910;2023-05-25T05:40:57;13.68;;;5.18;;
22628;SDS011;11481;53.694;9.910;2023-05-25T05:43:23;14.32;;;4.75;;
22628;SDS011;11481;53.694;9.910;2023-05-25T05:45:51;14.43;;;4.60;;
22628;SDS011;11481;53.694;9.910;2023-05-25T05:48:17;15.63;;;5.63;;
22628;SDS011;11481;53.694;9.910;2023-05-25T05:50:44;8.25;;;4.22;;
22628;SDS011;11481;53.694;9.910;2023-05-25T05:53:11;16.45;;;4.25;;
22628;SDS011;11481;53.694;9.910;2023-05-25T05:55:37;13.13;;;4.68;;
22628;SDS011;11481;53.694;9.910;2023-05-25T05:58:04;14.55;;;4.60;;
22628;SDS011;11481;53.694;9.910;2023-05-25T06:00:32;13.40;;;4.03;;
22628;SDS011;11481;53.694;9.910;2023-05-25T06:02:59;20.67;;;4.50;;
22628;SDS011;11481;53.694;9.910;2023-05-25T06:05:26;12.32;;;4.20;;
22628;SDS011;11481;53.694;9.910;2023-05-25T06:07:53;11.20;;;4.00;;
22628;SDS011;11481;53.694;9.910;2023-05-25T06:10:19;11.02;;;3.70;;
22628;SDS011;11481;53.694;9.910;2023-05-25T06:12:46;12.60;;;3.38;;
22628;SDS011;11481;53.694;9.910;2023-05-25T06:15:13;12.05;;;3.70;;
22628;SDS011;11481;53.694;9.910;2023-05-25T06:17:40;13.20;;;4.22;;
22628;SDS011;11481;53.694;9.910;2023-05-25T06:20:08;19.10;;;3.53;;
22628;SDS011;11481;53.694;9.910;2023-05-25T06:22:35;14.07;;;3.42;;
22628;SDS011;11481;53.694;9.910;2023-05-25T06:25:02;8.68;;;3.15;;
22628;SDS011;11481;53.694;9.910;2023-05-25T06:27:29;10.23;;;2.75;;
22628;SDS011;11481;53.694;9.910;2023-05-25T06:29:56;10.75;;;2.65;;
22628;SDS011;11481;53.694;9.910;2023-05-25T06:32:22;17.70;;;3.17;;
22628;SDS011;11481;53.694;9.910;2023-05-25T06:34:49;12.75;;;4.10;;
22628;SDS011;11481;53.694;9.910;2023-05-25T06:37:16;10.23;;;3.15;;
22628;SDS011;11481;53.694;9.910;2023-05-25T06:39:42;15.75;;;3.20;;
22628;SDS011;11481;53.694;9.910;2023-05-25T06:42:10;15.90;;;3.35;;
22628;SDS011;11481;53.694;9.910;2023-05-25T06:44:37;13.60;;;2.60;;
22628;SDS011;11481;53.694;9.910;2023-05-25T06:47:06;10.95;;;2.90;;
22628;SDS011;11481;53.694;9.910;2023-05-25T06:49:33;18.58;;;3.55;;
22628;SDS011;11481;53.694;9.910;2023-05-25T06:51:59;10.60;;;3.05;;
22628;SDS011;11481;53.694;9.910;2023-05-25T06:54:26;13.07;;;2.80;;
22628;SDS011;11481;53.694;9.910;2023-05-25T06:56:53;9.25;;;2.55;;
22628;SDS011;11481;53.694;9.910;2023-05-25T06:59:20;14.75;;;2.85;;
22628;SDS011;11481;53.694;9.910;2023-05-25T07:01:47;14.60;;;2.72;;
22628;SDS011;11481;53.694;9.910;2023-05-25T07:04:15;16.42;;;2.70;;
22628;SDS011;11481;53.694;9.910;2023-05-25T07:06:42;11.10;;;2.33;;
22628;SDS011;11481;53.694;9.910;2023-05-25T07:09:10;17.92;;;3.03;;
22628;SDS011;11481;53.694;9.910;2023-05-25T07:11:37;19.27;;;3.10;;
22628;SDS011;11481;53.694;9.910;2023-05-25T07:14:04;12.52;;;2.88;;
22628;SDS011;11481;53.694;9.910;2023-05-25T07:16:31;12.52;;;2.92;;
22628;SDS011;11481;53.694;9.910;2023-05-25T07:18:58;13.55;;;2.70;;
22628;SDS011;11481;53.694;9.910;2023-05-25T07:21:25;12.00;;;3.13;;
22628;SDS011;11481;53.694;9.910;2023-05-25T07:23:52;16.65;;;2.97;;
22628;SDS011;11481;53.694;9.910;2023-05-25T07:26:21;12.18;;;2.60;;
22628;SDS011;11481;53.694;9.910;2023-05-25T07:28:48;12.38;;;2.60;;
22628;SDS011;11481;53.694;9.910;2023-05-25T07:31:16;14.68;;;3.03;;
22628;SDS011;11481;53.694;9.910;2023-05-25T07:33:43;13.40;;;2.45;;
22628;SDS011;11481;53.694;9.910;2023-05-25T07:36:10;16.65;;;3.10;;
22628;SDS011;11481;53.694;9.910;2023-05-25T07:38:37;21.42;;;2.80;;
22628;SDS011;11481;53.694;9.910;2023-05-25T07:41:05;13.35;;;2.97;;
22628;SDS011;11481;53.694;9.910;2023-05-25T07:43:32;12.60;;;2.70;;
22628;SDS011;11481;53.694;9.910;2023-05-25T07:46:01;19.38;;;2.97;;
22628;SDS011;11481;53.694;9.910;2023-05-25T07:48:30;12.63;;;2.58;;
22628;SDS011;11481;53.694;9.910;2023-05-25T07:50:59;12.45;;;2.42;;
22628;SDS011;11481;53.694;9.910;2023-05-25T07:53:25;17.80;;;2.85;;
22628;SDS011;11481;53.694;9.910;2023-05-25T07:55:52;16.40;;;2.95;;
22628;SDS011;11481;53.694;9.910;2023-05-25T07:58:19;12.52;;;3.33;;
22628;SDS011;11481;53.694;9.910;2023-05-25T08:00:48;12.80;;;2.80;;
22628;SDS011;11481;53.694;9.910;2023-05-25T08:03:15;14.20;;;2.72;;
22628;SDS011;11481;53.694;9.910;2023-05-25T08:05:43;16.63;;;3.30;;
22628;SDS011;11481;53.694;9.910;2023-05-25T08:08:11;10.23;;;2.65;;
22628;SDS011;11481;53.694;9.910;2023-05-25T08:10:39;9.32;;;2.47;;
22628;SDS011;11481;53.694;9.910;2023-05-25T08:13:06;13.90;;;2.58;;
22628;SDS011;11481;53.694;9.910;2023-05-25T08:15:32;15.07;;;2.55;;
22628;SDS011;11481;53.694;9.910;2023-05-25T08:18:01;11.02;;;2.58;;
22628;SDS011;11481;53.694;9.910;2023-05-25T08:20:29;14.85;;;3.10;;
22628;SDS011;11481;53.694;9.910;2023-05-25T08:22:58;12.40;;;2.67;;
22628;SDS011;11481;53.694;9.910;2023-05-25T08:25:25;12.35;;;2.97;;
22628;SDS011;11481;53.694;9.910;2023-05-25T08:27:51;15.77;;;3.08;;
22628;SDS011;11481;53.694;9.910;2023-05-25T08:30:20;15.18;;;2.47;;
22628;SDS011;11481;53.694;9.910;2023-05-25T08:32:47;13.68;;;2.72;;
22628;SDS011;11481;53.694;9.910;2023-05-25T08:35:14;14.48;;;2.38;;
22628;SDS011;11481;53.694;9.910;2023-05-25T08:37:42;13.48;;;3.25;;
22628;SDS011;11481;53.694;9.910;2023-05-25T08:40:15;11.45;;;2.85;;
22628;SDS011;11481;53.694;9.910;2023-05-25T08:42:45;14.45;;;3.03;;
22628;SDS011;11481;53.694;9.910;2023-05-25T08:45:12;13.85;;;2.92;;
22628;SDS011;11481;53.694;9.910;2023-05-25T08:47:59;12.07;;;3.22;;
22628;SDS011;11481;53.694;9.910;2023-05-25T08:50:29;18.15;;;2.92;;
22628;SDS011;11481;53.694;9.910;2023-05-25T08:53:01;9.90;;;2.65;;
22628;SDS011;11481;53.694;9.910;2023-05-25T08:55:33;13.50;;;2.67;;
22628;SDS011;11481;53.694;9.910;2023-05-25T08:58:16;10.10;;;2.25;;
22628;SDS011;11481;53.694;9.910;2023-05-25T09:00:49;13.35;;;2.67;;
22628;SDS011;11481;53.694;9.910;2023-05-25T09:03:20;13.48;;;2.30;;
22628;SDS011;11481;53.694;9.910;2023-05-25T09:05:51;17.42;;;3.03;;
22628;SDS011;11481;53.694;9.910;2023-05-25T09:08:19;15.50;;;2.95;;
22628;SDS011;11481;53.694;9.910;2023-05-25T09:10:47;13.43;;;2.40;;
22628;SDS011;11481;53.694;9.910;2023-05-25T09:13:15;23.83;;;2.78;;
22628;SDS011;11481;53.694;9.910;2023-05-25T09:15:48;18.10;;;3.35;;
22628;SDS011;11481;53.694;9.910;2023-05-25T09:18:15;11.93;;;2.85;;
22628;SDS011;11481;53.694;9.910;2023-05-25T09:20:42;11.48;;;2.88;;
22628;SDS011;11481;53.694;9.910;2023-05-25T09:23:12;17.58;;;2.90;;
22628;SDS011;11481;53.694;9.910;2023-05-25T09:25:40;17.55;;;2.90;;
22628;SDS011;11481;53.694;9.910;2023-05-25T09:28:07;9.68;;;2.60;;
22628;SDS011;11481;53.694;9.910;2023-05-25T09:30:53;12.70;;;2.17;;
22628;SDS011;11481;53.694;9.910;2023-05-25T09:33:23;15.23;;;3.00;;
22628;SDS011;11481;53.694;9.910;2023-05-25T09:35:51;14.20;;;3.03;;
22628;SDS011;11481;53.694;9.910;2023-05-25T09:38:18;12.43;;;3.00;;
22628;SDS011;11481;53.694;9.910;2023-05-25T09:40:47;14.75;;;2.78;;
22628;SDS011;11481;53.694;9.910;2023-05-25T09:43:18;15.82;;;3.38;;
22628;SDS011;11481;53.694;9.910;2023-05-25T09:46:05;12.95;;;2.85;;
22628;SDS011;11481;53.694;9.910;2023-05-25T09:48:32;14.25;;;2.83;;
22628;SDS011;11481;53.694;9.910;2023-05-25T09:50:59;11.98;;;2.90;;
22628;SDS011;11481;53.694;9.910;2023-05-25T09:53:26;15.52;;;3.13;;
22628;SDS011;11481;53.694;9.910;2023-05-25T09:55:55;15.93;;;2.85;;
22628;SDS011;11481;53.694;9.910;2023-05-25T09:58:23;17.88;;;2.90;;
22628;SDS011;11481;53.694;9.910;2023-05-25T10:00:54;10.90;;;2.55;;
22628;SDS011;11481;53.694;9.910;2023-05-25T10:03:21;14.27;;;2.67;;
22628;SDS011;11481;53.694;9.910;2023-05-25T10:05:48;11.93;;;2.55;;
22628;SDS011;11481;53.694;9.910;2023-05-25T10:08:16;10.15;;;2.38;;
22628;SDS011;11481;53.694;9.910;2023-05-25T10:10:47;14.65;;;3.38;;
22628;SDS011;11481;53.694;9.910;2023-05-25T10:13:17;13.18;;;2.47;;
22628;SDS011;11481;53.694;9.910;2023-05-25T10:15:50;14.40;;;2.92;;
22628;SDS011;11481;53.694;9.910;2023-05-25T10:18:21;14.60;;;2.53;;
22628;SDS011;11481;53.694;9.910;2023-05-25T10:20:53;14.43;;;2.90;;
22628;SDS011;11481;53.694;9.910;2023-05-25T10:23:44;13.75;;;3.55;;
22628;SDS011;11481;53.694;9.910;2023-05-25T10:26:14;10.85;;;2.10;;
22628;SDS011;11481;53.694;9.910;2023-05-25T10:28:49;17.63;;;2.95;;
22628;SDS011;11481;53.694;9.910;2023-05-25T10:31:18;14.32;;;2.72;;
22628;SDS011;11481;53.694;9.910;2023-05-25T10:33:46;11.02;;;2.95;;
22628;SDS011;11481;53.694;9.910;2023-05-25T10:36:17;13.88;;;2.22;;
22628;SDS011;11481;53.694;9.910;2023-05-25T10:38:46;9.38;;;2.80;;
22628;SDS011;11481;53.694;9.910;2023-05-25T10:41:15;15.15;;;2.88;;
22628;SDS011;11481;53.694;9.910;2023-05-25T10:43:46;15.13;;;2.97;;
22628;SDS011;11481;53.694;9.910;2023-05-25T10:46:13;15.95;;;3.78;;
22628;SDS011;11481;53.694;9.910;2023-05-25T10:48:44;18.15;;;3.00;;
22628;SDS011;11481;53.694;9.910;2023-05-25T10:51:13;13.52;;;3.03;;
22628;SDS011;11481;53.694;9.910;2023-05-25T10:53:43;17.75;;;3.10;;
22628;SDS011;11481;53.694;9.910;2023-05-25T10:56:11;9.63;;;3.05;;
22628;SDS011;11481;53.694;9.910;2023-05-25T10:58:40;10.05;;;2.53;;
22628;SDS011;11481;53.694;9.910;2023-05-25T11:01:10;12.25;;;3.17;;
22628;SDS011;11481;53.694;9.910;2023-05-25T11:03:54;15.45;;;3.42;;
22628;SDS011;11481;53.694;9.910;2023-05-25T11:09:02;14.48;;;3.10;;
22628;SDS011;11481;53.694;9.910;2023-05-25T11:11:59;12.77;;;2.67;;
22628;SDS011;11481;53.694;9.910;2023-05-25T11:19:41;7.57;;;2.53;;
22628;SDS011;11481;53.694;9.910;2023-05-25T11:22:52;17.98;;;2.92;;
22628;SDS011;11481;53.694;9.910;2023-05-25T11:25:34;14.48;;;3.10;;
22628;SDS011;11481;53.694;9.910;2023-05-25T11:28:03;21.63;;;3.05;;
22628;SDS011;11481;53.694;9.910;2023-05-25T11:30:33;14.88;;;3.13;;
22628;SDS011;11481;53.694;9.910;2023-05-25T11:33:01;12.45;;;2.55;;
22628;SDS011;11481;53.694;9.910;2023-05-25T11:35:34;14.35;;;3.70;;
22628;SDS011;11481;53.694;9.910;2023-05-25T11:38:05;26.90;;;3.90;;
22628;SDS011;11481;53.694;9.910;2023-05-25T11:40:32;18.42;;;2.88;;
22628;SDS011;11481;53.694;9.910;2023-05-25T11:42:59;13.80;;;2.75;;
22628;SDS011;11481;53.694;9.910;2023-05-25T11:45:30;16.95;;;3.40;;
22628;SDS011;11481;53.694;9.910;2023-05-25T11:48:05;17.25;;;2.50;;
22628;SDS011;11481;53.694;9.910;2023-05-25T11:51:03;10.90;;;2.70;;
22628;SDS011;11481;53.694;9.910;2023-05-25T11:53:55;11.75;;;2.58;;
22628;SDS011;11481;53.694;9.910;2023-05-25T11:56:46;17.75;;;3.05;;
22628;SDS011;11481;53.694;9.910;2023-05-25T11:59:37;12.43;;;2.60;;
22628;SDS011;11481;53.694;9.910;2023-05-25T12:02:35;11.60;;;2.85;;
22628;SDS011;11481;53.694;9.910;2023-05-25T12:05:06;13.52;;;2.28;;
22628;SDS011;11481;53.694;9.910;2023-05-25T12:07:41;8.07;;;2.58;;
22628;SDS011;11481;53.694;9.910;2023-05-25T12:10:10;12.50;;;2.65;;
22628;SDS011;11481;53.694;9.910;2023-05-25T12:12:40;19.63;;;3.15;;
22628;SDS011;11481;53.694;9.910;2023-05-25T12:15:30;14.45;;;2.92;;
22628;SDS011;11481;53.694;9.910;2023-05-25T12:17:57;14.07;;;2.92;;
22628;SDS011;11481;53.694;9.910;2023-05-25T12:20:25;11.20;;;2.85;;
22628;SDS011;11481;53.694;9.910;2023-05-25T12:22:52;13.60;;;3.10;;
22628;SDS011;11481;53.694;9.910;2023-05-25T12:25:20;11.70;;;3.03;;
22628;SDS011;11481;53.694;9.910;2023-05-25T12:28:08;14.55;;;3.15;;
22628;SDS011;11481;53.694;9.910;2023-05-25T12:30:39;16.50;;;2.83;;
22628;SDS011;11481;53.694;9.910;2023-05-25T12:33:06;20.42;;;3.55;;
22628;SDS011;11481;53.694;9.910;2023-05-25T12:35:46;23.65;;;4.47;;
22628;SDS011;11481;53.694;9.910;2023-05-25T12:38:15;12.95;;;2.70;;
22628;SDS011;11481;53.694;9.910;2023-05-25T12:40:43;12.55;;;2.97;;
22628;SDS011;11481;53.694;9.910;2023-05-25T12:43:10;17.30;;;3.28;;
22628;SDS011;11481;53.694;9.910;2023-05-25T12:45:40;14.77;;;3.63;;
22628;SDS011;11481;53.694;9.910;2023-05-25T12:48:09;16.70;;;3.45;;
22628;SDS011;11481;53.694;9.910;2023-05-25T12:50:37;10.38;;;2.75;;
22628;SDS011;11481;53.694;9.910;2023-05-25T12:53:03;13.07;;;3.58;;
22628;SDS011;11481;53.694;9.910;2023-05-25T12:55:31;20.20;;;3.38;;
22628;SDS011;11481;53.694;9.910;2023-05-25T12:58:01;15.38;;;2.83;;
22628;SDS011;11481;53.694;9.910;2023-05-25T13:03:04;11.02;;;3.17;;
22628;SDS011;11481;53.694;9.910;2023-05-25T13:05:35;16.75;;;3.47;;
22628;SDS011;11481;53.694;9.910;2023-05-25T13:08:03;13.77;;;3.53;;
22628;SDS011;11481;53.694;9.910;2023-05-25T13:10:31;18.45;;;3.50;;
22628;SDS011;11481;53.694;9.910;2023-05-25T13:12:59;14.80;;;3.28;;
22628;SDS011;11481;53.694;9.910;2023-05-25T13:15:27;14.68;;;2.95;;
22628;SDS011;11481;53.694;9.910;2023-05-25T13:17:54;14.70;;;2.78;;
22628;SDS011;11481;53.694;9.910;2023-05-25T13:20:23;11.73;;;2.97;;
22628;SDS011;11481;53.694;9.910;2023-05-25T13:22:52;18.05;;;3.50;;
22628;SDS011;11481;53.694;9.910;2023-05-25T13:25:20;11.05;;;2.65;;
22628;SDS011;11481;53.694;9.910;2023-05-25T13:27:48;14.73;;;3.58;;
22628;SDS011;11481;53.694;9.910;2023-05-25T13:30:18;14.02;;;3.92;;
22628;SDS011;11481;53.694;9.910;2023-05-25T13:32:47;13.35;;;3.08;;
22628;SDS011;11481;53.694;9.910;2023-05-25T13:35:17;16.30;;;3.40;;
22628;SDS011;11481;53.694;9.910;2023-05-25T13:37:48;15.65;;;3.22;;
22628;SDS011;11481;53.694;9.910;2023-05-25T13:40:16;17.95;;;3.10;;
22628;SDS011;11481;53.694;9.910;2023-05-25T13:42:42;20.45;;;3.17;;
22628;SDS011;11481;53.694;9.910;2023-05-25T13:45:09;18.05;;;4.03;;
22628;SDS011;11481;53.694;9.910;2023-05-25T13:47:36;13.57;;;3.10;;
22628;SDS011;11481;53.694;9.910;2023-05-25T13:50:03;12.90;;;3.08;;
22628;SDS011;11481;53.694;9.910;2023-05-25T13:52:30;12.45;;;2.90;;
22628;SDS011;11481;53.694;9.910;2023-05-25T13:54:57;14.15;;;3.35;;
22628;SDS011;11481;53.694;9.910;2023-05-25T13:57:23;12.75;;;2.88;;
22628;SDS011;11481;53.694;9.910;2023-05-25T13:59:50;16.92;;;3.20;;
22628;SDS011;11481;53.694;9.910;2023-05-25T14:02:18;12.02;;;2.80;;
22628;SDS011;11481;53.694;9.910;2023-05-25T14:04:45;15.23;;;3.13;;
22628;SDS011;11481;53.694;9.910;2023-05-25T14:07:11;15.48;;;3.45;;
22628;SDS011;11481;53.694;9.910;2023-05-25T14:09:39;13.05;;;2.80;;
22628;SDS011;11481;53.694;9.910;2023-05-25T14:12:05;17.00;;;3.47;;
22628;SDS011;11481;53.694;9.910;2023-05-25T14:14:32;12.93;;;2.97;;
22628;SDS011;11481;53.694;9.910;2023-05-25T14:16:59;15.43;;;3.72;;
22628;SDS011;11481;53.694;9.910;2023-05-25T14:19:26;11.93;;;2.90;;
22628;SDS011;11481;53.694;9.910;2023-05-25T14:21:53;14.52;;;3.75;;
22628;SDS011;11481;53.694;9.910;2023-05-25T14:24:23;10.23;;;2.92;;
22628;SDS011;11481;53.694;9.910;2023-05-25T14:26:50;12.10;;;2.50;;
22628;SDS011;11481;53.694;9.910;2023-05-25T14:29:16;12.05;;;2.80;;
22628;SDS011;11481;53.694;9.910;2023-05-25T14:31:43;17.08;;;3.38;;
22628;SDS011;11481;53.694;9.910;2023-05-25T14:34:11;16.55;;;2.97;;
22628;SDS011;11481;53.694;9.910;2023-05-25T14:36:37;10.68;;;3.28;;
22628;SDS011;11481;53.694;9.910;2023-05-25T14:39:04;12.63;;;3.00;;
22628;SDS011;11481;53.694;9.910;2023-05-25T14:41:31;14.70;;;3.00;;
22628;SDS011;11481;53.694;9.910;2023-05-25T14:43:57;18.40;;;3.28;;
22628;SDS011;11481;53.694;9.910;2023-05-25T14:46:24;11.95;;;2.67;;
22628;SDS011;11481;53.694;9.910;2023-05-25T14:48:53;9.55;;;2.70;;
22628;SDS011;11481;53.694;9.910;2023-05-25T14:51:21;12.30;;;3.25;;
22628;SDS011;11481;53.694;9.910;2023-05-25T14:53:49;15.98;;;3.00;;
22628;SDS011;11481;53.694;9.910;2023-05-25T14:56:18;13.25;;;2.47;;
22628;SDS011;11481;53.694;9.910;2023-05-25T14:58:46;10.73;;;2.70;;